Flight Track Log - Related Links

Times and Time Zones

All times are in EDT time to prevent confusion due to time zone crossing. See the CPZ5805 flight status page for this flight to view local times or setup timezone preferences in your user account.

Time Position Orientation Groundspeed Altitude Reporting Facility
EDT Latitude Longitude Course Direction KTS MPH feet Rate Location/Type
Mon 11:37:27 AM 41.9644 -72.7275 315° West 155 178 1,700  Level Boston Center
Mon 11:38:27 AM 41.9956 -72.7697 315° West 171 197 3,200 1,750 Climbing Boston Center
Mon 11:39:00 AM 42.2167 -72.8862 270° West  Level FlightAware Approximate
Mon 11:39:27 AM 42.0581 -72.8064 336° Northwest 202 232 5,200  Level Boston Center
Mon 11:40:00 AM 42.3049 -72.9532 334° Northwest  Level FlightAware Approximate
Mon 11:40:27 AM 42.1244 -72.8431 338° Northwest 261 300 7,800  Level Boston Center
Mon 11:41:00 AM 42.4036 -73.0100 340° North  Level FlightAware Approximate
Mon 11:41:27 AM 42.2056 -72.8942 335° Northwest 286 329 10,700  Level Boston Center
Mon 11:42:00 AM 42.5044 -73.0604 340° North  Level FlightAware Approximate
Mon 11:42:27 AM 42.2867 -72.9453 335° Northwest 328 377 12,100  Level Boston Center
Mon 11:43:27 AM 42.3761 -72.9994 336° Northwest 348 400 14,800 2,600 Climbing Boston Center
Mon 11:44:27 AM 42.4781 -73.0536 339° North 353 406 17,300 1,650 Climbing Boston Center
Mon 11:45:27 AM 42.5631 -73.1025 337° Northwest 364 419 18,100 1,250 Climbing Boston Center
Mon 11:46:27 AM 42.6669 -73.1628 337° Northwest 386 444 19,800 1,450 Climbing Boston Center
Mon 11:47:27 AM 42.7686 -73.2178 338° Northwest 392 451 21,000 600 Climbing Boston Center
Mon 11:48:27 AM 42.8725 -73.2786 337° Northwest 392 451 21,000 350 Level Boston Center
Mon 11:49:27 AM 42.9678 -73.3481 332° Northwest 392 451 21,700 1,100 Climbing Boston Center
Mon 11:50:27 AM 43.0064 -73.4819 292° West 361 415 23,200 1,150 Climbing Boston Center
Mon 11:51:27 AM 43.0131 -73.6297 274° West 362 417 24,000 400 Climbing Boston Center
Mon 11:52:27 AM 43.0219 -73.7719 275° West 373 429 24,000 400 Level Boston Center
Mon 11:53:27 AM 43.0328 -73.9172 276° West 383 441 24,800 1,000 Climbing Boston Center
Mon 11:54:27 AM 43.0433 -74.0650 276° West 388 447 26,000 1,150 Climbing Boston Center
Mon 11:55:27 AM 43.0514 -74.2158 274° West 393 452 27,100 1,050 Climbing Boston Center
Mon 11:56:27 AM 43.0614 -74.3725 275° West 403 464 28,100 850 Climbing Boston Center
Mon 11:57:27 AM 43.0697 -74.4950 275° West 410 472 28,800 950 Climbing Boston Center
Mon 11:58:27 AM 43.0808 -74.6803 275° West 410 472 30,000 1,000 Climbing Boston Center
Mon 11:59:27 AM 43.0900 -74.8425 274° West 415 478 30,800 900 Climbing Boston Center
Mon 12:00:27 PM 43.0992 -74.9964 275° West 415 478 31,800 600 Climbing Boston Center
Mon 12:01:27 PM 43.1058 -75.1533 273° West 420 483 32,000 400 Climbing Boston Center
Mon 12:02:27 PM 43.1147 -75.3072 275° West 420 483 32,600 700 Climbing Boston Center
Mon 12:03:27 PM 43.1231 -75.4614 274° West 420 483 33,400 700 Climbing Boston Center
Mon 12:04:27 PM 43.1336 -75.6156 275° West 415 478 34,000 300 Climbing Boston Center
Mon 12:05:27 PM 43.1397 -75.7694 273° West 410 472 34,000  Level Boston Center
Mon 12:06:27 PM 43.1472 -75.9292 274° West 410 472 34,000  Level Boston Center
Mon 12:08:10 PM 43.1500 -76.1833 271° West 420 483 34,000  Level Toronto Center
Mon 12:08:49 PM 43.1506 -76.3142 270° West 423 487 34,000  Level Cleveland Center
Mon 12:09:49 PM 43.1394 -76.4714 265° West 423 487 34,000  Level Cleveland Center
Mon 12:10:49 PM 43.1242 -76.6261 262° West 423 487 34,000  Level Cleveland Center
Mon 12:11:49 PM 43.1106 -76.7778 263° West 423 487 34,000  Level Cleveland Center
Mon 12:12:49 PM 43.0983 -76.9208 263° West 423 487 34,000  Level Cleveland Center
Mon 12:13:49 PM 43.0844 -77.0753 263° West 423 487 34,000  Level Cleveland Center
Mon 12:14:49 PM 43.1014 -77.2306 279° West 417 480 34,000  Level Cleveland Center
Mon 12:15:49 PM 43.1203 -77.3833 280° West 410 472 34,000  Level Cleveland Center
Mon 12:16:49 PM 43.1392 -77.5389 279° West 415 478 34,000  Level Cleveland Center
Mon 12:17:49 PM 43.1597 -77.6914 281° West 415 478 34,000  Level Cleveland Center
Mon 12:18:49 PM 43.1781 -77.8472 279° West 415 478 34,000  Level Cleveland Center
Mon 12:19:49 PM 43.1942 -78.0033 278° West 415 478 34,000  Level Cleveland Center
Mon 12:20:49 PM 43.2142 -78.1592 280° West 415 478 34,000  Level Cleveland Center
Mon 12:21:49 PM 43.2342 -78.3178 280° West 415 478 34,000  Level Cleveland Center
Mon 12:22:49 PM 43.2539 -78.4739 280° West 421 484 34,000  Level Cleveland Center
Mon 12:23:49 PM 43.2711 -78.6272 279° West 421 484 34,000  Level Cleveland Center
Mon 12:24:49 PM 43.2881 -78.7808 279° West 421 484 34,000  Level Cleveland Center
Mon 12:25:49 PM 43.3072 -78.9372 280° West 421 484 34,000  Level Cleveland Center
Mon 12:26:10 PM 43.3000 -79.0000 261° West 410 472 34,000  Level Toronto Center
Mon 12:27:10 PM 43.3167 -79.1333 280° West 410 472 34,000  Level Toronto Center
Mon 12:28:10 PM 43.3333 -79.2833 279° West 410 472 34,000  Level Toronto Center
Mon 12:29:10 PM 43.3500 -79.4500 278° West 410 472 34,000  Level Toronto Center
Mon 12:30:10 PM 43.3667 -79.5833 280° West 400 460 34,000  Level Toronto Center
Mon 12:31:10 PM 43.3833 -79.7500 278° West 400 460 34,000  Level Toronto Center
Mon 12:32:10 PM 43.4000 -79.9167 278° West 400 460 34,000  Level Toronto Center
Mon 12:33:10 PM 43.4167 -80.0500 280° West 410 472 34,000  Level Toronto Center
Mon 12:34:10 PM 43.4333 -80.2000 279° West 410 472 34,000  Level Toronto Center
Mon 12:35:10 PM 43.4500 -80.3667 278° West 410 472 34,000  Level Toronto Center
Mon 12:36:10 PM 43.5000 -80.5000 297° West 410 472 34,000  Level Toronto Center
Mon 12:38:10 PM 43.6000 -80.8000 295° West 420 483 34,000  Level Toronto Center
Mon 12:39:10 PM 43.6333 -80.9500 287° West 420 483 34,000  Level Toronto Center
Mon 12:40:10 PM 43.6833 -81.0833 297° West 420 483 34,000  Level Toronto Center
Mon 12:41:10 PM 43.7333 -81.2333 295° West 420 483 34,000  Level Toronto Center
Mon 12:42:10 PM 43.8000 -81.3833 302° West 410 472 34,000  Level Toronto Center
Mon 12:43:10 PM 43.8333 -81.5333 287° West 410 472 34,000  Level Toronto Center
Mon 12:44:10 PM 43.9000 -81.6667 305° West 410 472 34,000  Level Toronto Center
Mon 12:45:10 PM 43.9333 -81.8167 287° West 410 472 34,000  Level Toronto Center
Mon 12:46:10 PM 43.9667 -81.9500 289° West 410 472 34,000  Level Toronto Center
Mon 12:47:10 PM 44.0167 -82.1167 293° West 410 472 34,000  Level Toronto Center
Mon 12:48:10 PM 44.0667 -82.2500 298° West 410 472 34,000  Level Toronto Center
Mon 12:49:10 PM 44.1333 -82.4000 302° West 410 472 34,000  Level Toronto Center
Mon 12:50:02 PM 44.1672 -82.5053 294° West 406 467 34,000  Level Minneapolis Center
Mon 12:51:04 PM 44.2128 -82.6486 294° West 405 466 34,000  Level Minneapolis Center
Mon 12:52:05 PM 44.2669 -82.8194 294° West 404 465 34,000  Level Minneapolis Center
Mon 12:53:10 PM 44.3000 -82.9667 287° West 400 460 34,000  Level Toronto Center
Mon 12:54:10 PM 44.3500 -83.1000 298° West 400 460 34,000  Level Toronto Center
Mon 12:55:10 PM 44.3833 -83.2500 287° West 400 460 34,000  Level Toronto Center
Mon 12:56:10 PM 44.4333 -83.4000 295° West 410 472 34,000  Level Toronto Center
Mon 12:57:10 PM 44.4500 -83.5333 280° West 400 460 34,000  Level Toronto Center
Mon 12:58:16 PM 44.4825 -83.6975 286° West 398 458 34,000  Level Minneapolis Center
Mon 12:59:18 PM 44.5000 -83.8803 278° West 397 457 34,000  Level Minneapolis Center
Mon 01:00:24 PM 44.5172 -84.0333 279° West 399 459 34,000  Level Minneapolis Center
Mon 01:01:26 PM 44.5336 -84.1878 279° West 400 460 34,000  Level Minneapolis Center
Mon 01:02:28 PM 44.5503 -84.3397 279° West 398 458 34,000  Level Minneapolis Center
Mon 01:03:30 PM 44.5681 -84.5242 278° West 398 458 34,000  Level Minneapolis Center
Mon 01:04:31 PM 44.5844 -84.6756 279° West 396 456 34,000  Level Minneapolis Center
Mon 01:05:33 PM 44.5986 -84.8275 278° West 394 453 34,000  Level Minneapolis Center
Mon 01:06:35 PM 44.6136 -84.9792 278° West 394 453 34,000  Level Minneapolis Center
Mon 01:07:37 PM 44.6286 -85.1289 278° West 390 449 34,000  Level Minneapolis Center
Mon 01:08:39 PM 44.6425 -85.2794 277° West 389 448 34,000  Level Minneapolis Center
Mon 01:09:41 PM 44.6600 -85.4631 278° West 394 453 34,000  Level Minneapolis Center
Mon 01:10:43 PM 44.6672 -85.6144 274° West 392 451 34,000 -146 Level Minneapolis Center
Mon 01:11:44 PM 44.6606 -85.7664 267° West 390 449 33,700 -927 Descending Minneapolis Center
Mon 01:12:46 PM 44.6558 -85.9164 268° West 389 448 32,100 -823 Descending Minneapolis Center
Mon 01:13:48 PM 44.6511 -86.0650 267° West 384 442 32,000 -44 Descending Minneapolis Center
Mon 01:15:02 PM 44.6436 -86.2528 267° West 383 441 32,000  Level Minneapolis Center
Mon 01:16:04 PM 44.6378 -86.4044 267° West 386 444 32,000  Level Minneapolis Center
Mon 01:17:06 PM 44.6317 -86.5553 267° West 387 445 32,000  Level Minneapolis Center
Mon 01:18:08 PM 44.6258 -86.7069 267° West 389 448 32,000  Level Minneapolis Center
Mon 01:19:10 PM 44.6186 -86.8878 267° West 387 445 32,000  Level Minneapolis Center
Mon 01:20:12 PM 44.6122 -87.0383 267° West 387 445 32,000  Level Minneapolis Center
Mon 01:21:13 PM 44.6061 -87.1897 267° West 389 448 32,000  Level Minneapolis Center
Mon 01:22:15 PM 44.6000 -87.3106 266° West 389 448 32,000  Level Minneapolis Center
Mon 01:23:17 PM 44.5917 -87.4919 266° West 390 449 32,000  Level Minneapolis Center
Mon 01:24:19 PM 44.5839 -87.6442 266° West 391 450 32,000  Level Minneapolis Center
Mon 01:25:21 PM 44.5764 -87.7964 266° West 392 451 32,000  Level Minneapolis Center
Mon 01:26:22 PM 44.5672 -87.9614 266° West 388 447 32,000  Level Minneapolis Center
Mon 01:27:24 PM 44.5594 -88.1144 266° West 392 451 32,000  Level Minneapolis Center
Mon 01:28:26 PM 44.5669 -88.2925 273° West 397 457 32,000  Level Minneapolis Center
Mon 01:29:28 PM 44.5850 -88.4444 280° West 397 457 32,000  Level Minneapolis Center
Mon 01:30:30 PM 44.6033 -88.5975 280° West 399 459 32,000  Level Minneapolis Center
Mon 01:31:32 PM 44.6194 -88.7481 279° West 394 453 32,000  Level Minneapolis Center
Mon 01:32:34 PM 44.6361 -88.8967 279° West 389 448 32,000  Level Minneapolis Center
Mon 01:33:35 PM 44.6525 -89.0372 279° West 372 428 32,000  Level Minneapolis Center
Mon 01:34:37 PM 44.6700 -89.2003 279° West 362 417 32,000  Level Minneapolis Center
Mon 01:35:39 PM 44.6858 -89.3425 279° West 368 423 32,000 -435 Level Minneapolis Center
Mon 01:36:41 PM 44.7011 -89.4842 279° West 368 423 31,100 -968 Descending Minneapolis Center
Mon 01:37:43 PM 44.7167 -89.6300 279° West 375 432 30,000 -1,210 Descending Minneapolis Center
Mon 01:38:45 PM 44.7339 -89.7819 279° West 391 450 28,600 -968 Descending Minneapolis Center
Mon 01:39:47 PM 44.7517 -89.9619 278° West 399 459 28,000 -293 Descending Minneapolis Center
Mon 01:40:48 PM 44.7681 -90.1169 279° West 400 460 28,000  Level Minneapolis Center
Mon 01:41:50 PM 44.7831 -90.2722 278° West 399 459 28,000  Level Minneapolis Center
Mon 01:42:52 PM 44.7981 -90.4269 278° West 399 459 28,000 -97 Level Minneapolis Center
Mon 01:43:54 PM 44.8122 -90.5733 278° West 394 453 27,800 -823 Descending Minneapolis Center
Mon 01:44:56 PM 44.8272 -90.7264 278° West 396 456 26,300 -1,368 Descending Minneapolis Center
Mon 01:46:10 PM 44.8486 -90.9422 278° West 401 461 24,700 -1,147 Descending Minneapolis Center
Mon 01:47:12 PM 44.8614 -91.0972 277° West 402 463 23,700 -968 Descending Minneapolis Center
Mon 01:48:14 PM 44.8761 -91.2539 278° West 392 451 22,700 -976 Descending Minneapolis Center
Mon 01:49:15 PM 44.8908 -91.4097 278° West 386 444 21,700 -1,005 Descending Minneapolis Center
Mon 01:51:19 PM 44.9372 -91.6828 284° West 375 432 19,600 -1,387 Descending Minneapolis Center
Mon 01:52:21 PM 44.9681 -91.8531 284° West 374 430 17,400 -2,147 Descending Minneapolis Center
Mon 01:52:54 PM 44.9925 -91.9300 294° West 366 421 16,200 -2,111 Descending FAA TRACON SMA TRACON (SMA)
Mon 01:53:15 PM 45.0006 -91.9714 285° West 358 412 15,500 -2,195 Descending FAA TRACON SMA TRACON (SMA)
Mon 01:53:35 PM 45.0067 -92.0222 280° West 348 400 14,700 -2,154 Descending FAA TRACON SMA TRACON (SMA)
Mon 01:53:54 PM 45.0144 -92.0628 285° West 345 397 14,100 -1,846 Descending FAA TRACON SMA TRACON (SMA)
Mon 01:54:14 PM 45.0217 -92.1022 285° West 341 392 13,500 -1,950 Descending FAA TRACON SMA TRACON (SMA)
Mon 01:54:34 PM 45.0303 -92.1522 284° West 341 392 12,800 -2,100 Descending FAA TRACON SMA TRACON (SMA)
Mon 01:54:54 PM 45.0381 -92.1925 285° West 342 394 12,100 -1,902 Descending FAA TRACON SMA TRACON (SMA)
Mon 01:55:15 PM 45.0447 -92.2325 283° West 343 395 11,500 -1,610 Descending FAA TRACON SMA TRACON (SMA)
Mon 01:55:35 PM 45.0500 -92.2822 279° West 340 391 11,000 -750 Descending FAA TRACON SMA TRACON (SMA)
Mon 01:55:55 PM 45.0486 -92.3222 267° West 335 386 11,000  Level FAA TRACON SMA TRACON (SMA)
Mon 01:56:15 PM 45.0428 -92.3614 258° West 330 380 11,000  Level FAA TRACON SMA TRACON (SMA)
Mon 01:56:35 PM 45.0344 -92.4094 256° West 328 377 11,000 -154 Level FAA TRACON SMA TRACON (SMA)
Mon 01:56:54 PM 45.0278 -92.4464 256° West 319 367 10,900 -462 Descending FAA TRACON SMA TRACON (SMA)
Mon 01:57:14 PM 45.0219 -92.4811 257° West 303 349 10,700 -585 Descending FAA TRACON SMA TRACON (SMA)
Mon 01:57:35 PM 45.0147 -92.5222 256° West 281 323 10,500 -878 Descending FAA TRACON SMA TRACON (SMA)
Mon 01:57:55 PM 45.0036 -92.5500 241° Southwest 269 310 10,100 -1,200 Descending FAA TRACON SMA TRACON (SMA)
Mon 01:58:15 PM 44.9903 -92.5747 233° Southwest 260 299 9,700 -1,350 Descending FAA TRACON SMA TRACON (SMA)
Mon 01:58:35 PM 44.9722 -92.6047 230° Southwest 258 297 9,200 -1,538 Descending FAA TRACON SMA TRACON (SMA)
Mon 01:58:54 PM 44.9578 -92.6289 230° Southwest 260 299 8,700 -1,538 Descending FAA TRACON SMA TRACON (SMA)
Mon 01:59:14 PM 44.9442 -92.6533 232° Southwest 259 298 8,200 -1,429 Descending FAA TRACON SMA TRACON (SMA)
Mon 01:59:36 PM 44.9256 -92.6831 229° Southwest 261 300 7,700 -1,429 Descending FAA TRACON SMA TRACON (SMA)
Mon 01:59:56 PM 44.9119 -92.7081 232° Southwest 262 302 7,200 -1,100 Descending FAA TRACON SMA TRACON (SMA)
Mon 02:00:36 PM 44.8797 -92.7628 230° Southwest 264 304 6,600 -1,017 Descending FAA TRACON SMA TRACON (SMA)
Mon 02:00:55 PM 44.8653 -92.7875 231° Southwest 264 304 6,200 -1,385 Descending FAA TRACON SMA TRACON (SMA)
Mon 02:01:15 PM 44.8506 -92.8128 231° Southwest 268 308 5,700 -1,350 Descending FAA TRACON SMA TRACON (SMA)
Mon 02:01:35 PM 44.8356 -92.8378 230° Southwest 270 311 5,300 -1,350 Descending FAA TRACON SMA TRACON (SMA)
Mon 02:01:55 PM 44.8169 -92.8694 230° Southwest 270 311 4,800 -1,500 Descending FAA TRACON SMA TRACON (SMA)
Mon 02:02:15 PM 44.8031 -92.8942 232° Southwest 268 308 4,300 -1,200 Descending FAA TRACON SMA TRACON (SMA)
Mon 02:02:35 PM 44.7869 -92.9286 237° Southwest 271 312 4,000 -450 Descending FAA TRACON SMA TRACON (SMA)
Mon 02:02:55 PM 44.7847 -92.9592 264° West 267 307 4,000  Level FAA TRACON SMA TRACON (SMA)
Mon 02:03:16 PM 44.7914 -92.9867 289° West 251 289 4,000 -293 Level FAA TRACON SMA TRACON (SMA)
Mon 02:03:36 PM 44.8019 -93.0106 302° West 234 269 3,800 -923 Descending FAA TRACON SMA TRACON (SMA)
Mon 02:03:55 PM 44.8142 -93.0400 300° West 228 262 3,400 -1,200 Descending FAA TRACON SMA TRACON (SMA)
Mon 02:04:16 PM 44.8236 -93.0617 302° West 216 249 3,000 -1,171 Descending FAA TRACON SMA TRACON (SMA)
Mon 02:04:36 PM 44.8342 -93.0850 303° West 189 217 2,600 -1,077 Descending FAA TRACON SMA TRACON (SMA)
Mon 02:04:55 PM 44.8414 -93.1019 301° West 166 191 2,300 -947 Descending FAA TRACON SMA TRACON (SMA)

Login

Don't have an account? Register now (free) for customized features, flight alerts, and more!